Time;durP1;ratioP1;P1;durP2;ratioP2;P2;SDS_P1;SDS_P2;PMS_P1;PMS_P2;Temp;Humidity;BMP_temperature;BMP_pressure;BME280_temperature;BME280_humidity;BME280_pressure;Samples;Min_cycle;Max_cycle;Signal;HPM_P1;HPM_P2
2024/03/21 00:00:37;;;;;;;4.65;3.03;;;11.50;99.90;;;;;;5068821;28;20059;-74
2024/03/21 00:03:03;;;;;;;4.38;2.65;;;11.50;99.90;;;;;;5069068;28;20164;-74
2024/03/21 00:05:30;;;;;;;4.40;2.58;;;11.50;99.90;;;;;;5069645;28;20169;-75
2024/03/21 00:07:56;;;;;;;5.68;2.85;;;11.50;99.90;;;;;;5065747;28;20079;-74
2024/03/21 00:10:22;;;;;;;6.07;2.90;;;11.60;99.90;;;;;;5073062;28;20083;-73
2024/03/21 00:12:49;;;;;;;4.90;3.00;;;11.60;99.90;;;;;;5067410;28;20189;-74
2024/03/21 00:15:16;;;;;;;8.40;3.08;;;11.60;99.90;;;;;;5049737;28;20049;-73
2024/03/21 00:17:43;;;;;;;4.32;2.60;;;11.60;99.90;;;;;;5077455;28;20043;-73
2024/03/21 00:20:10;;;;;;;5.03;2.88;;;11.60;99.90;;;;;;5065255;28;20040;-74
2024/03/21 00:22:40;;;;;;;6.68;3.53;;;11.60;99.90;;;;;;5063556;28;20067;-74
2024/03/21 00:25:06;;;;;;;5.50;3.00;;;11.60;99.90;;;;;;5067398;28;20040;-73
2024/03/21 00:27:33;;;;;;;4.63;2.90;;;11.60;99.90;;;;;;5066990;28;20131;-73
2024/03/21 00:29:59;;;;;;;3.63;2.63;;;11.60;99.90;;;;;;5072288;28;20648;-73
2024/03/21 00:32:26;;;;;;;5.65;2.90;;;11.60;99.90;;;;;;5055555;28;20074;-73
2024/03/21 00:34:52;;;;;;;6.32;3.10;;;11.60;99.90;;;;;;5055617;28;20047;-73
2024/03/21 00:37:18;;;;;;;5.63;3.35;;;11.60;99.90;;;;;;5062621;28;20042;-74
2024/03/21 00:39:45;;;;;;;4.78;2.05;;;11.60;99.90;;;;;;5063139;28;20379;-73
2024/03/21 00:42:11;;;;;;;4.63;2.50;;;11.50;99.90;;;;;;5065727;28;20040;-74
2024/03/21 00:44:37;;;;;;;4.80;2.65;;;11.60;99.90;;;;;;5066606;28;20032;-73
2024/03/21 00:47:03;;;;;;;4.20;2.25;;;11.60;99.90;;;;;;5055239;28;20090;-74
2024/03/21 00:49:29;;;;;;;3.75;1.88;;;11.50;99.90;;;;;;5068854;28;20127;-74
2024/03/21 00:51:55;;;;;;;3.67;2.08;;;11.50;99.90;;;;;;5050590;28;20135;-74
2024/03/21 00:54:22;;;;;;;4.13;1.67;;;11.50;99.90;;;;;;5067699;28;20093;-74
2024/03/21 00:56:47;;;;;;;2.53;1.40;;;11.50;99.90;;;;;;5051182;28;20504;-74
2024/03/21 00:59:13;;;;;;;3.67;1.50;;;11.50;99.90;;;;;;5056028;28;20033;-74
2024/03/21 01:01:43;;;;;;;5.80;2.00;;;11.50;99.90;;;;;;5067042;28;20131;-74
2024/03/21 01:04:08;;;;;;;4.38;2.42;;;11.50;99.90;;;;;;5063363;28;20040;-74
2024/03/21 01:06:34;;;;;;;3.05;1.95;;;11.40;99.90;;;;;;5068993;28;20098;-74
2024/03/21 01:09:00;;;;;;;6.22;2.22;;;11.50;99.90;;;;;;5066624;28;20044;-74
2024/03/21 01:11:26;;;;;;;4.65;2.75;;;11.50;99.90;;;;;;5063261;28;20048;-74
2024/03/21 01:13:52;;;;;;;6.18;2.47;;;11.40;99.90;;;;;;5062702;28;20040;-73
2024/03/21 01:16:18;;;;;;;4.13;2.28;;;11.40;99.90;;;;;;5046377;28;20430;-74
2024/03/21 01:18:44;;;;;;;3.67;2.05;;;11.40;99.90;;;;;;5058184;28;20043;-73
2024/03/21 01:21:10;;;;;;;5.85;2.55;;;11.50;99.90;;;;;;5059693;28;20444;-74
2024/03/21 01:23:36;;;;;;;4.05;2.63;;;11.40;99.90;;;;;;5061202;28;20058;-76
2024/03/21 01:26:03;;;;;;;2.53;1.75;;;11.40;99.90;;;;;;5053694;28;20126;-74
2024/03/21 01:28:30;;;;;;;3.88;2.00;;;11.40;99.90;;;;;;5064034;28;20037;-74
2024/03/21 01:30:55;;;;;;;6.00;3.08;;;11.40;99.90;;;;;;5055122;28;20219;-74
2024/03/21 01:33:22;;;;;;;3.45;2.20;;;11.40;99.90;;;;;;5063256;28;20143;-73
2024/03/21 01:35:47;;;;;;;3.22;1.55;;;11.40;99.90;;;;;;5064273;28;20040;-73
2024/03/21 01:38:16;;;;;;;4.47;2.75;;;11.40;99.90;;;;;;5066362;28;20036;-73
2024/03/21 01:40:42;;;;;;;8.00;3.00;;;11.40;99.90;;;;;;5065265;28;20040;-73
2024/03/21 01:43:24;;;;;;;3.78;2.00;;;11.40;99.90;;;;;;5067942;28;20042;-73
2024/03/21 01:46:05;;;;;;;4.65;2.30;;;11.40;99.90;;;;;;5061834;28;20131;-73
2024/03/21 01:48:30;;;;;;;5.13;2.38;;;11.40;99.90;;;;;;5067569;28;20058;-73
2024/03/21 01:50:57;;;;;;;2.65;1.50;;;11.40;99.90;;;;;;5054468;28;20139;-73
2024/03/21 01:53:23;;;;;;;3.90;2.35;;;11.40;99.90;;;;;;5069333;28;20052;-73
2024/03/21 01:55:49;;;;;;;3.42;1.83;;;11.20;99.90;;;;;;5062764;28;20063;-73
2024/03/21 01:58:16;;;;;;;3.97;2.05;;;11.30;99.90;;;;;;5084437;28;20294;-73
2024/03/21 02:00:42;;;;;;;4.40;2.08;;;11.30;99.90;;;;;;5061348;28;20048;-73
2024/03/21 02:03:07;;;;;;;6.88;2.40;;;11.20;99.90;;;;;;5062243;28;20479;-73
2024/03/21 02:05:33;;;;;;;4.65;2.78;;;11.20;99.90;;;;;;5062846;28;20036;-73
2024/03/21 02:07:59;;;;;;;3.72;2.13;;;11.20;99.90;;;;;;5079321;28;20047;-73
2024/03/21 02:10:25;;;;;;;4.22;2.45;;;11.20;99.90;;;;;;5058065;28;20246;-73
2024/03/21 02:12:51;;;;;;;3.53;2.33;;;11.20;99.90;;;;;;5068273;28;20113;-73
2024/03/21 02:15:17;;;;;;;4.05;1.85;;;11.10;99.90;;;;;;5062870;28;20108;-73
2024/03/21 02:17:43;;;;;;;4.35;2.28;;;11.10;99.90;;;;;;5076939;28;20132;-74
2024/03/21 02:20:11;;;;;;;3.47;2.28;;;11.10;99.90;;;;;;5062480;28;20040;-73
2024/03/21 02:22:37;;;;;;;3.53;1.90;;;11.10;99.90;;;;;;5050042;28;20028;-73
2024/03/21 02:25:09;;;;;;;5.38;2.65;;;11.00;99.90;;;;;;5062310;28;20090;-74
2024/03/21 02:27:36;;;;;;;4.32;2.05;;;11.00;99.90;;;;;;5062389;28;20041;-73
2024/03/21 02:30:02;;;;;;;3.88;2.35;;;11.00;99.90;;;;;;5062496;28;20037;-75
2024/03/21 02:32:30;;;;;;;4.70;1.65;;;11.00;99.90;;;;;;5064440;28;20040;-73
2024/03/21 02:34:56;;;;;;;4.97;2.58;;;10.90;99.90;;;;;;5067772;28;20040;-73
2024/03/21 02:37:22;;;;;;;3.90;2.15;;;10.90;99.90;;;;;;5053990;28;20039;-73
2024/03/21 02:39:52;;;;;;;7.50;2.17;;;10.90;99.90;;;;;;5066984;28;20123;-73
2024/03/21 02:42:21;;;;;;;5.13;2.08;;;10.90;99.90;;;;;;5048690;28;20070;-73
2024/03/21 02:44:48;;;;;;;5.25;2.63;;;10.80;99.90;;;;;;5063854;28;20040;-73
2024/03/21 02:47:14;;;;;;;4.15;1.90;;;10.80;99.90;;;;;;5068694;28;20044;-72
2024/03/21 02:49:40;;;;;;;3.80;1.95;;;10.80;99.90;;;;;;5063204;28;20059;-72
2024/03/21 02:52:06;;;;;;;3.35;2.30;;;10.80;99.90;;;;;;5070353;28;20492;-72
2024/03/21 02:54:32;;;;;;;4.35;2.10;;;10.70;99.90;;;;;;5048432;28;20032;-71
2024/03/21 02:57:06;;;;;;;4.68;1.98;;;10.80;99.90;;;;;;5063925;28;20035;-70
2024/03/21 02:59:32;;;;;;;4.28;2.30;;;10.70;99.90;;;;;;5071750;28;20032;-71
2024/03/21 03:01:58;;;;;;;3.53;1.60;;;10.70;99.90;;;;;;5060734;28;20043;-71
2024/03/21 03:04:24;;;;;;;4.90;2.45;;;10.60;99.90;;;;;;5071276;28;20046;-71
2024/03/21 03:06:50;;;;;;;2.38;1.55;;;10.60;99.90;;;;;;5058058;28;20032;-71
2024/03/21 03:09:15;;;;;;;1.85;1.10;;;10.50;99.90;;;;;;5059935;28;20127;-72
2024/03/21 03:11:43;;;;;;;1.95;1.35;;;10.40;99.90;;;;;;5082046;28;20033;-72
2024/03/21 03:14:09;;;;;;;4.22;1.42;;;10.40;99.90;;;;;;5076920;28;20052;-72
2024/03/21 03:16:35;;;;;;;2.15;1.00;;;10.30;99.90;;;;;;5068400;28;20044;-72
2024/03/21 03:19:02;;;;;;;2.38;1.42;;;10.20;99.90;;;;;;5062361;28;20569;-72
2024/03/21 03:21:27;;;;;;;2.03;0.85;;;10.00;99.90;;;;;;5065713;28;20036;-72
2024/03/21 03:23:53;;;;;;;0.60;0.50;;;10.00;99.90;;;;;;5064137;28;20036;-72
2024/03/21 03:26:19;;;;;;;2.20;1.23;;;9.90;99.90;;;;;;5066489;28;20044;-72
2024/03/21 03:28:45;;;;;;;2.17;1.17;;;9.90;99.90;;;;;;5045120;28;20051;-71
2024/03/21 03:31:11;;;;;;;1.20;0.65;;;9.80;99.90;;;;;;5062962;28;20045;-72
2024/03/21 03:36:23;;;;;;;2.10;1.48;;;9.60;99.90;;;;;;5048557;28;20119;-72
2024/03/21 03:38:49;;;;;;;2.38;1.63;;;9.40;99.90;;;;;;5051261;28;20388;-71
2024/03/21 03:41:16;;;;;;;2.83;1.30;;;9.30;99.90;;;;;;5062435;28;20040;-72
2024/03/21 03:43:41;;;;;;;2.95;2.38;;;9.20;99.90;;;;;;5055698;28;20406;-72
2024/03/21 03:46:07;;;;;;;2.30;1.90;;;9.20;99.90;;;;;;5085020;28;20044;-72
2024/03/21 03:48:33;;;;;;;3.63;2.08;;;9.10;99.90;;;;;;5061897;28;20041;-72
2024/03/21 03:50:58;;;;;;;2.80;1.70;;;9.00;99.90;;;;;;5069822;28;20372;-72
2024/03/21 03:53:25;;;;;;;4.90;2.60;;;9.00;99.90;;;;;;5056141;28;20036;-71
2024/03/21 03:55:51;;;;;;;2.15;1.77;;;9.00;99.90;;;;;;5060269;28;20075;-72
2024/03/21 03:58:16;;;;;;;3.30;2.08;;;8.90;99.90;;;;;;5051729;28;20064;-72
2024/03/21 04:00:42;;;;;;;3.25;2.00;;;8.90;99.90;;;;;;5040017;28;20037;-72
2024/03/21 04:03:08;;;;;;;3.88;2.03;;;8.80;99.90;;;;;;5057663;28;20056;-72
2024/03/21 04:05:33;;;;;;;5.03;2.08;;;8.80;99.90;;;;;;5060962;28;20439;-71
2024/03/21 04:07:59;;;;;;;1.95;1.27;;;8.70;99.90;;;;;;5040182;28;20041;-72
2024/03/21 04:10:25;;;;;;;2.10;1.33;;;8.60;99.90;;;;;;5049615;28;20045;-71
2024/03/21 04:12:51;;;;;;;5.70;0.95;;;8.50;99.90;;;;;;5059120;28;20047;-72
2024/03/21 04:15:16;;;;;;;1.38;0.65;;;8.50;99.90;;;;;;5043642;28;20036;-72
2024/03/21 04:17:42;;;;;;;2.40;0.85;;;8.40;99.90;;;;;;5045865;28;20044;-72
2024/03/21 04:20:08;;;;;;;1.90;0.77;;;8.40;99.90;;;;;;5044957;28;20484;-71
2024/03/21 04:22:34;;;;;;;4.95;0.95;;;8.30;99.90;;;;;;5064852;28;20036;-71
2024/03/21 04:25:02;;;;;;;1.65;0.80;;;8.30;99.90;;;;;;5057303;28;20047;-72
2024/03/21 04:27:28;;;;;;;6.53;1.42;;;8.20;99.90;;;;;;5060414;28;20115;-71
2024/03/21 04:29:54;;;;;;;2.03;0.57;;;8.20;99.90;;;;;;5041945;28;20032;-71
2024/03/21 04:32:19;;;;;;;0.80;0.60;;;8.20;99.90;;;;;;5059318;28;20549;-71
2024/03/21 04:34:46;;;;;;;6.50;0.98;;;8.20;99.90;;;;;;5049215;28;20054;-71
2024/03/21 04:37:17;;;;;;;4.10;1.40;;;8.20;99.90;;;;;;5054315;28;20040;-72
2024/03/21 04:39:44;;;;;;;2.50;1.33;;;8.20;99.90;;;;;;5060710;28;20392;-71
2024/03/21 04:42:12;;;;;;;4.90;0.80;;;8.20;99.90;;;;;;5054390;28;20041;-71
2024/03/21 04:44:38;;;;;;;3.20;0.60;;;8.20;99.90;;;;;;5064852;28;20079;-71
2024/03/21 04:47:03;;;;;;;1.55;0.90;;;8.20;99.90;;;;;;5059008;28;20036;-72
2024/03/21 04:49:29;;;;;;;1.65;0.30;;;8.10;99.90;;;;;;5050549;28;20044;-71
2024/03/21 04:51:55;;;;;;;0.98;0.65;;;8.10;99.90;;;;;;5066376;28;20055;-71
2024/03/21 04:54:20;;;;;;;0.73;0.45;;;8.10;99.90;;;;;;5062626;28;20048;-71
2024/03/21 04:56:49;;;;;;;3.20;0.75;;;8.00;99.90;;;;;;5065535;28;20159;-71
2024/03/21 04:59:15;;;;;;;4.43;0.60;;;7.90;99.90;;;;;;5051400;28;20040;-71
2024/03/21 05:01:40;;;;;;;4.70;0.90;;;7.90;99.90;;;;;;5048694;28;20498;-71
2024/03/21 05:04:06;;;;;;;1.50;0.63;;;7.90;99.90;;;;;;5062308;28;20055;-71
2024/03/21 05:06:32;;;;;;;1.65;0.70;;;7.90;99.90;;;;;;5062165;28;20090;-72
2024/03/21 05:08:58;;;;;;;0.50;0.30;;;7.80;99.90;;;;;;5064797;28;20043;-72
2024/03/21 05:11:24;;;;;;;2.60;0.65;;;7.80;99.90;;;;;;5061592;28;20110;-72
2024/03/21 05:13:50;;;;;;;0.40;0.40;;;7.80;99.90;;;;;;5044856;28;20036;-72
2024/03/21 05:16:19;;;;;;;1.17;0.47;;;7.80;99.90;;;;;;5064242;28;20105;-72
2024/03/21 05:18:44;;;;;;;1.05;0.50;;;7.90;99.90;;;;;;5047132;28;20047;-72
2024/03/21 05:21:10;;;;;;;5.22;0.93;;;7.90;99.90;;;;;;5048731;28;20044;-73
2024/03/21 05:23:36;;;;;;;2.55;0.73;;;7.90;99.90;;;;;;5057965;28;20054;-74
2024/03/21 05:26:02;;;;;;;3.13;0.57;;;7.80;99.90;;;;;;5048155;28;20037;-72
2024/03/21 05:28:28;;;;;;;1.05;0.40;;;7.80;99.90;;;;;;5051103;28;20149;-73
2024/03/21 05:30:54;;;;;;;1.63;0.68;;;7.90;99.90;;;;;;5061024;28;20045;-72
2024/03/21 05:33:20;;;;;;;3.40;0.80;;;7.80;99.90;;;;;;5067636;28;20048;-72
2024/03/21 05:35:46;;;;;;;2.35;0.70;;;7.80;99.90;;;;;;5050710;28;20042;-72
2024/03/21 05:38:12;;;;;;;2.40;0.40;;;7.80;99.90;;;;;;5063556;28;20116;-72
2024/03/21 05:40:41;;;;;;;2.03;0.68;;;7.80;99.90;;;;;;5054487;28;20040;-72
2024/03/21 05:43:09;;;;;;;6.45;1.05;;;7.80;99.90;;;;;;5063075;28;20049;-71
2024/03/21 05:45:35;;;;;;;1.13;0.38;;;7.70;99.90;;;;;;5048088;28;20062;-71
2024/03/21 05:48:01;;;;;;;1.83;0.60;;;7.80;99.90;;;;;;5064522;28;20162;-71
2024/03/21 05:50:27;;;;;;;0.88;0.30;;;7.70;99.90;;;;;;5049474;28;20049;-71
2024/03/21 05:52:53;;;;;;;1.45;0.20;;;7.70;99.90;;;;;;5062054;28;20075;-72
2024/03/21 05:55:18;;;;;;;5.00;0.38;;;7.60;99.90;;;;;;5064597;28;20115;-72
2024/03/21 05:57:44;;;;;;;0.15;0.10;;;7.60;99.90;;;;;;5061521;28;20041;-71
2024/03/21 06:00:16;;;;;;;1.75;0.10;;;7.60;99.90;;;;;;5047785;28;20058;-72
2024/03/21 06:02:42;;;;;;;2.03;0.75;;;7.60;99.90;;;;;;5067435;28;20485;-73
2024/03/21 06:05:08;;;;;;;0.75;0.30;;;7.60;99.90;;;;;;5060661;28;20053;-71
2024/03/21 06:07:33;;;;;;;2.00;0.38;;;7.60;99.90;;;;;;5067359;28;20194;-72
2024/03/21 06:09:59;;;;;;;1.15;0.30;;;7.60;99.90;;;;;;5062717;28;20048;-73
2024/03/21 06:12:25;;;;;;;4.07;0.22;;;7.70;99.90;;;;;;5057526;28;20348;-72
2024/03/21 06:14:51;;;;;;;2.10;0.30;;;7.70;99.90;;;;;;5050982;28;20045;-72
2024/03/21 06:17:16;;;;;;;2.17;0.20;;;7.70;99.90;;;;;;5057633;28;20043;-72
2024/03/21 06:19:42;;;;;;;1.30;0.50;;;7.70;99.90;;;;;;5056646;28;20041;-72
2024/03/21 06:22:08;;;;;;;2.63;0.25;;;7.70;99.90;;;;;;5039861;28;20049;-72
2024/03/21 06:24:33;;;;;;;1.13;0.32;;;7.70;99.90;;;;;;5058772;28;20056;-72
2024/03/21 06:26:59;;;;;;;2.88;0.30;;;7.70;99.90;;;;;;5060254;28;20040;-72
2024/03/21 06:29:28;;;;;;;0.10;0.03;;;7.80;99.90;;;;;;5058266;28;20049;-72
2024/03/21 06:31:54;;;;;;;0.10;0.10;;;7.80;99.90;;;;;;5044433;28;20480;-72
2024/03/21 06:34:20;;;;;;;0.65;0.43;;;7.80;99.90;;;;;;5062449;28;20083;-72
2024/03/21 06:36:45;;;;;;;0.63;0.13;;;7.90;99.90;;;;;;5059057;28;20121;-72
2024/03/21 06:39:13;;;;;;;0.65;0.20;;;7.90;99.90;;;;;;5059405;28;20052;-72
2024/03/21 06:41:39;;;;;;;0.15;0.10;;;7.90;99.90;;;;;;5055886;28;20051;-72
2024/03/21 06:44:05;;;;;;;0.10;0.08;;;8.00;99.90;;;;;;5060979;28;20037;-73
2024/03/21 06:46:31;;;;;;;2.72;0.08;;;8.00;99.90;;;;;;5065630;28;20349;-72
2024/03/21 06:48:57;;;;;;;0.88;0.25;;;8.00;99.90;;;;;;5061129;28;20041;-72
2024/03/21 06:51:22;;;;;;;0.00;0.00;;;8.10;99.90;;;;;;5062666;28;20416;-72
2024/03/21 06:53:48;;;;;;;0.40;0.20;;;8.10;99.90;;;;;;5065052;28;20034;-72
2024/03/21 06:56:14;;;;;;;0.25;0.20;;;8.10;99.90;;;;;;5072169;28;20451;-71
2024/03/21 06:58:40;;;;;;;5.28;0.35;;;8.20;99.90;;;;;;5060238;28;20033;-71
2024/03/21 07:01:06;;;;;;;0.45;0.28;;;8.20;99.90;;;;;;5048137;28;20053;-74
2024/03/21 07:03:32;;;;;;;0.30;0.10;;;8.20;99.90;;;;;;5044928;28;20075;-73
2024/03/21 07:05:57;;;;;;;0.57;0.10;;;8.40;99.90;;;;;;5062587;28;20090;-73
2024/03/21 07:08:23;;;;;;;0.98;0.38;;;8.30;99.90;;;;;;5043821;28;20055;-73
2024/03/21 07:10:51;;;;;;;1.52;0.52;;;8.40;99.90;;;;;;5051096;28;20044;-73
2024/03/21 07:13:17;;;;;;;0.40;0.10;;;8.30;99.90;;;;;;5055996;28;20455;-74
2024/03/21 07:15:43;;;;;;;1.33;0.20;;;8.40;99.90;;;;;;5061272;28;20064;-73
2024/03/21 07:18:13;;;;;;;0.52;0.20;;;8.40;99.90;;;;;;5050799;28;20044;-73
2024/03/21 07:20:40;;;;;;;0.47;0.20;;;8.40;99.90;;;;;;5058945;28;20037;-73
2024/03/21 07:23:06;;;;;;;0.93;0.73;;;8.40;99.90;;;;;;5046348;28;20032;-73
2024/03/21 07:25:35;;;;;;;2.63;0.85;;;8.40;99.90;;;;;;5063577;28;20043;-73
2024/03/21 07:28:01;;;;;;;0.30;0.10;;;8.40;99.90;;;;;;5061301;28;20083;-73
2024/03/21 07:30:27;;;;;;;2.80;0.43;;;8.40;99.90;;;;;;5059521;28;20068;-73
2024/03/21 07:32:53;;;;;;;0.57;0.10;;;8.40;99.90;;;;;;5058530;28;20083;-73
2024/03/21 07:35:18;;;;;;;0.80;0.32;;;8.40;99.90;;;;;;5049810;28;20079;-74
2024/03/21 07:37:44;;;;;;;0.75;0.15;;;8.40;99.90;;;;;;5042993;28;20045;-73
2024/03/21 07:40:10;;;;;;;0.00;0.00;;;8.40;99.90;;;;;;5062087;28;20078;-73
2024/03/21 07:42:36;;;;;;;0.55;0.10;;;8.50;99.90;;;;;;5061141;28;20041;-74
2024/03/21 07:45:03;;;;;;;0.22;0.20;;;8.50;99.90;;;;;;5058513;28;20041;-75
2024/03/21 07:47:29;;;;;;;2.33;0.45;;;8.50;99.90;;;;;;5060938;28;20436;-74
2024/03/21 07:49:55;;;;;;;1.17;0.17;;;8.40;99.90;;;;;;5050242;28;20037;-73
2024/03/21 07:52:21;;;;;;;0.82;0.38;;;8.40;99.90;;;;;;5070234;28;20052;-74
2024/03/21 07:54:47;;;;;;;0.85;0.38;;;8.40;99.90;;;;;;5051310;28;20036;-75
2024/03/21 07:57:14;;;;;;;0.65;0.10;;;8.40;99.90;;;;;;5076868;28;20369;-73
2024/03/21 07:59:40;;;;;;;0.10;0.00;;;8.30;99.90;;;;;;5069140;28;20448;-73
2024/03/21 08:02:06;;;;;;;0.32;0.20;;;8.40;99.90;;;;;;5064077;28;20040;-73
2024/03/21 08:04:33;;;;;;;2.55;0.40;;;8.30;99.90;;;;;;5066889;28;20621;-73
2024/03/21 08:06:59;;;;;;;0.20;0.20;;;8.40;99.90;;;;;;5055488;28;20040;-73
2024/03/21 08:09:25;;;;;;;0.38;0.15;;;8.30;99.90;;;;;;5074740;28;20054;-74
2024/03/21 08:11:50;;;;;;;2.45;0.55;;;8.30;99.90;;;;;;5069960;28;20090;-72
2024/03/21 08:14:18;;;;;;;0.22;0.08;;;8.30;99.90;;;;;;5055293;28;20517;-72
2024/03/21 08:16:44;;;;;;;0.52;0.20;;;8.30;99.90;;;;;;5070314;28;20059;-73
2024/03/21 08:19:09;;;;;;;1.25;0.17;;;8.30;99.90;;;;;;5067019;28;20059;-73
2024/03/21 08:21:35;;;;;;;0.50;0.22;;;8.40;99.90;;;;;;5052966;28;20285;-73
2024/03/21 08:24:01;;;;;;;5.07;0.47;;;8.40;99.90;;;;;;5065781;28;20040;-73
2024/03/21 08:26:26;;;;;;;1.48;0.32;;;8.50;99.90;;;;;;5066783;28;20117;-74
2024/03/21 08:28:52;;;;;;;0.93;0.20;;;8.50;99.90;;;;;;5070470;28;20036;-74
2024/03/21 08:31:18;;;;;;;0.77;0.40;;;8.50;99.90;;;;;;5084502;28;20048;-74
2024/03/21 08:33:43;;;;;;;1.88;0.10;;;8.50;99.90;;;;;;5065653;28;20653;-73
2024/03/21 08:36:09;;;;;;;0.60;0.32;;;8.50;99.90;;;;;;5068435;28;20090;-73
2024/03/21 08:38:35;;;;;;;5.30;0.73;;;8.50;99.90;;;;;;5082297;28;20036;-74
2024/03/21 08:41:00;;;;;;;0.98;0.10;;;8.60;99.90;;;;;;5050562;28;20075;-74
2024/03/21 08:43:26;;;;;;;2.50;0.88;;;8.70;99.90;;;;;;5056064;28;20044;-74
2024/03/21 08:45:53;;;;;;;3.13;0.10;;;8.70;99.90;;;;;;5067511;28;20147;-73
2024/03/21 08:48:19;;;;;;;1.13;0.25;;;8.70;99.90;;;;;;5059912;28;20048;-74
2024/03/21 08:50:47;;;;;;;0.70;0.38;;;8.70;99.90;;;;;;5055902;28;20044;-74
2024/03/21 08:53:16;;;;;;;2.08;0.20;;;8.80;99.90;;;;;;5073136;28;20036;-73
2024/03/21 08:55:42;;;;;;;4.50;0.52;;;8.80;99.90;;;;;;5074494;28;20434;-74
2024/03/21 08:58:08;;;;;;;0.43;0.30;;;8.70;99.90;;;;;;5073079;28;20032;-74
2024/03/21 09:00:37;;;;;;;0.73;0.28;;;8.80;99.90;;;;;;5055722;28;20047;-73
2024/03/21 09:03:04;;;;;;;0.10;0.00;;;8.80;99.90;;;;;;5065983;28;20032;-74
2024/03/21 09:05:30;;;;;;;3.10;0.30;;;8.80;99.90;;;;;;5067507;28;20048;-74
2024/03/21 09:07:56;;;;;;;1.27;0.10;;;8.80;99.90;;;;;;5088785;28;20043;-74
2024/03/21 09:10:22;;;;;;;1.38;0.10;;;8.80;99.90;;;;;;5065271;28;20096;-73
2024/03/21 09:12:48;;;;;;;1.83;0.28;;;8.90;99.90;;;;;;5065538;28;20403;-74
2024/03/21 09:15:16;;;;;;;2.03;0.50;;;8.90;99.90;;;;;;5066449;28;20388;-74
2024/03/21 09:17:41;;;;;;;1.30;0.10;;;8.90;99.90;;;;;;5070311;28;20036;-74
2024/03/21 09:20:08;;;;;;;0.38;0.10;;;8.90;99.90;;;;;;5063541;28;20047;-73
2024/03/21 09:22:39;;;;;;;1.08;0.43;;;8.90;99.90;;;;;;5068229;28;20491;-74
2024/03/21 09:25:05;;;;;;;0.65;0.28;;;9.00;99.90;;;;;;5068240;28;20516;-75
2024/03/21 09:27:31;;;;;;;0.68;0.32;;;8.80;99.90;;;;;;5070506;28;20090;-73
2024/03/21 09:29:57;;;;;;;1.83;0.38;;;8.80;99.90;;;;;;5044374;28;20152;-74
2024/03/21 09:32:23;;;;;;;1.35;0.20;;;8.90;99.90;;;;;;5052010;28;20469;-74
2024/03/21 09:34:51;;;;;;;0.10;0.10;;;8.90;99.90;;;;;;5064957;28;20058;-73
2024/03/21 09:37:18;;;;;;;0.30;0.03;;;8.90;99.90;;;;;;5071329;28;20029;-75
2024/03/21 09:39:44;;;;;;;1.92;0.45;;;8.90;99.90;;;;;;5065139;28;20044;-74
2024/03/21 09:42:17;;;;;;;1.27;0.03;;;9.00;99.90;;;;;;5064779;28;20056;-74
2024/03/21 09:44:46;;;;;;;0.05;0.05;;;9.00;99.90;;;;;;5066934;28;20543;-74
2024/03/21 09:47:13;;;;;;;2.55;0.13;;;9.10;99.90;;;;;;5067601;28;20124;-74
2024/03/21 09:49:39;;;;;;;1.92;0.63;;;9.10;99.90;;;;;;5054313;28;20032;-74
2024/03/21 09:52:06;;;;;;;0.65;0.10;;;9.20;99.90;;;;;;5063052;28;20484;-79
2024/03/21 09:54:34;;;;;;;3.63;1.52;;;9.10;99.90;;;;;;5067755;28;20039;-72
2024/03/21 09:57:00;;;;;;;1.15;0.22;;;9.10;99.90;;;;;;5063243;28;20047;-72
2024/03/21 09:59:26;;;;;;;2.30;0.40;;;9.20;99.90;;;;;;5057399;28;20127;-72
2024/03/21 10:01:52;;;;;;;0.38;0.20;;;9.30;99.90;;;;;;5085717;28;20044;-71
2024/03/21 10:04:17;;;;;;;3.20;0.63;;;9.20;99.90;;;;;;5055193;28;20036;-74
2024/03/21 10:06:47;;;;;;;1.38;0.35;;;9.30;99.90;;;;;;5083712;28;20128;-73
2024/03/21 10:09:14;;;;;;;0.38;0.20;;;9.40;99.90;;;;;;5067367;28;20391;-73
2024/03/21 10:11:43;;;;;;;0.35;0.17;;;9.50;99.90;;;;;;5064807;28;20455;-73
2024/03/21 10:14:12;;;;;;;0.38;0.15;;;9.50;99.90;;;;;;5068530;28;20040;-73
2024/03/21 10:16:40;;;;;;;1.23;0.50;;;9.40;99.90;;;;;;5070544;28;20032;-73
2024/03/21 10:19:07;;;;;;;9.68;0.50;;;9.30;99.90;;;;;;5064994;28;20036;-73
2024/03/21 10:21:33;;;;;;;1.05;0.40;;;9.30;99.90;;;;;;5061358;28;20079;-73
2024/03/21 10:24:03;;;;;;;2.58;0.60;;;9.40;99.90;;;;;;5061114;28;20098;-72
2024/03/21 10:26:29;;;;;;;1.85;0.22;;;9.50;99.90;;;;;;5067597;28;20036;-72
2024/03/21 10:28:56;;;;;;;1.95;0.20;;;9.50;99.90;;;;;;5065582;28;20079;-73
2024/03/21 10:31:22;;;;;;;0.57;0.13;;;9.60;99.90;;;;;;5072383;28;20391;-72
2024/03/21 10:33:53;;;;;;;0.68;0.22;;;9.60;99.90;;;;;;5072369;28;20067;-73
2024/03/21 10:36:19;;;;;;;2.72;0.85;;;9.60;99.90;;;;;;5069869;28;20423;-73
2024/03/21 10:38:45;;;;;;;1.38;0.30;;;9.70;99.90;;;;;;5065249;28;20051;-73
2024/03/21 10:41:28;;;;;;;0.45;0.10;;;9.70;99.90;;;;;;5061758;28;20472;-73
2024/03/21 10:44:06;;;;;;;1.55;0.20;;;9.80;99.90;;;;;;5066619;28;20040;-73
2024/03/21 10:46:38;;;;;;;0.35;0.32;;;9.90;99.90;;;;;;5065971;28;20074;-72
2024/03/21 10:49:06;;;;;;;1.30;0.25;;;9.90;99.90;;;;;;5053828;28;20041;-76
2024/03/21 10:51:40;;;;;;;0.20;0.03;;;10.10;99.90;;;;;;5049915;28;20048;-76
2024/03/21 10:54:13;;;;;;;1.55;0.32;;;10.20;99.90;;;;;;5071648;28;20442;-77
2024/03/21 10:56:40;;;;;;;2.72;0.47;;;10.20;99.90;;;;;;5064857;28;20044;-74
2024/03/21 10:59:06;;;;;;;1.15;0.20;;;10.30;99.90;;;;;;5048707;28;20532;-78
2024/03/21 11:01:40;;;;;;;2.13;0.70;;;10.40;99.90;;;;;;5051465;28;20047;-76
2024/03/21 11:04:10;;;;;;;4.50;0.57;;;10.30;99.90;;;;;;5047003;28;20104;-73
2024/03/21 11:06:38;;;;;;;1.67;0.32;;;10.20;99.90;;;;;;5074241;28;20043;-74
2024/03/21 11:09:05;;;;;;;0.77;0.45;;;10.20;99.90;;;;;;5070132;28;20464;-73
2024/03/21 11:11:32;;;;;;;1.58;0.40;;;10.00;99.90;;;;;;5066368;28;20119;-81
2024/03/21 11:14:07;;;;;;;1.10;0.30;;;10.00;99.90;;;;;;5047044;28;20051;-76
2024/03/21 11:16:33;;;;;;;2.47;0.50;;;9.90;99.90;;;;;;5063347;28;20070;-79
2024/03/21 11:18:59;;;;;;;4.97;0.32;;;10.00;99.90;;;;;;5061018;28;20372;-78
2024/03/21 11:21:25;;;;;;;4.88;0.82;;;10.10;99.90;;;;;;5071727;28;20040;-78
2024/03/21 11:23:51;;;;;;;1.75;0.25;;;10.10;99.90;;;;;;5072432;28;20052;-79
2024/03/21 11:26:18;;;;;;;2.88;0.22;;;10.10;99.90;;;;;;5072120;28;20554;-74
2024/03/21 11:28:46;;;;;;;1.63;0.22;;;10.10;99.90;;;;;;5062539;28;20045;-73
2024/03/21 11:31:19;;;;;;;1.83;0.25;;;10.10;99.90;;;;;;5059806;28;20118;-74
2024/03/21 11:33:46;;;;;;;0.70;0.20;;;10.10;99.90;;;;;;5063538;28;20096;-74
2024/03/21 11:36:12;;;;;;;1.02;0.45;;;10.00;99.90;;;;;;5053109;28;20039;-66
2024/03/21 11:38:38;;;;;;;1.95;0.40;;;10.10;99.90;;;;;;5059299;28;20037;-70
2024/03/21 11:41:05;;;;;;;1.50;0.80;;;10.10;99.90;;;;;;5063236;28;20040;-68
2024/03/21 11:43:30;;;;;;;0.40;0.20;;;10.20;99.90;;;;;;5071612;28;20545;-72
2024/03/21 11:45:59;;;;;;;1.35;0.60;;;10.20;99.90;;;;;;5059207;28;20043;-74
2024/03/21 11:48:26;;;;;;;0.60;0.50;;;10.20;99.90;;;;;;5069503;28;20060;-73
2024/03/21 11:50:53;;;;;;;9.88;2.20;;;10.20;99.90;;;;;;5056926;28;20121;-64
2024/03/21 11:53:20;;;;;;;6.50;1.55;;;10.20;99.90;;;;;;5088551;28;20047;-63
2024/03/21 11:55:46;;;;;;;2.28;0.65;;;10.20;99.90;;;;;;5080771;28;20307;-64
2024/03/21 11:58:13;;;;;;;1.08;0.20;;;10.20;99.90;;;;;;5088287;28;20039;-65
2024/03/21 12:00:39;;;;;;;0.60;0.40;;;10.10;99.90;;;;;;5081485;28;20045;-65
2024/03/21 12:03:08;;;;;;;3.05;0.28;;;10.10;99.90;;;;;;5084691;28;20093;-64
2024/03/21 12:05:34;;;;;;;2.72;0.50;;;10.10;99.90;;;;;;5082094;28;20040;-63
2024/03/21 12:08:00;;;;;;;0.65;0.22;;;10.00;99.90;;;;;;5066442;28;20048;-65
2024/03/21 12:10:25;;;;;;;0.95;0.40;;;10.10;99.90;;;;;;5061522;28;20044;-65
2024/03/21 12:12:51;;;;;;;0.60;0.40;;;10.00;99.90;;;;;;5081669;28;20036;-66
2024/03/21 12:15:17;;;;;;;0.88;0.60;;;10.00;99.90;;;;;;5072779;28;20055;-67
2024/03/21 12:17:43;;;;;;;1.13;0.38;;;9.90;99.90;;;;;;5086882;28;20028;-68
2024/03/21 12:20:09;;;;;;;4.03;1.05;;;10.00;99.90;;;;;;5065054;28;20494;-68
2024/03/21 12:22:35;;;;;;;1.60;0.55;;;10.00;99.90;;;;;;5086592;28;20089;-69
2024/03/21 12:25:00;;;;;;;3.08;0.90;;;10.10;99.90;;;;;;5066282;28;20056;-70
2024/03/21 12:27:26;;;;;;;3.30;0.85;;;10.00;99.90;;;;;;5083300;28;20045;-73
2024/03/21 12:29:52;;;;;;;5.55;1.50;;;10.00;99.90;;;;;;5077757;28;20062;-73
2024/03/21 12:32:18;;;;;;;6.07;1.08;;;10.00;99.90;;;;;;5059668;28;20109;-71
2024/03/21 12:34:43;;;;;;;3.17;0.65;;;10.00;99.90;;;;;;5068985;28;20436;-69
2024/03/21 12:37:11;;;;;;;3.45;0.38;;;10.00;99.90;;;;;;5068875;28;20446;-68
2024/03/21 12:39:42;;;;;;;1.55;0.63;;;10.10;99.90;;;;;;5090300;28;20083;-70
2024/03/21 12:42:12;;;;;;;0.70;0.40;;;10.10;99.90;;;;;;5087401;28;20044;-67
2024/03/21 12:44:38;;;;;;;4.05;0.70;;;10.10;99.90;;;;;;5067051;28;20035;-67
2024/03/21 12:47:04;;;;;;;0.82;0.40;;;10.10;99.90;;;;;;5076557;28;20079;-68
2024/03/21 12:49:29;;;;;;;0.77;0.55;;;10.10;99.90;;;;;;5081148;28;20468;-69
2024/03/21 12:51:55;;;;;;;0.85;0.40;;;10.00;99.90;;;;;;5062143;28;20052;-70